sensor_id;sensor_type;location;lat;lon;timestamp;P1;durP1;ratioP1;P2;durP2;ratioP2
34136;SDS011;20414;50.860;4.382;2023-01-09T00:01:20;0.82;;;0.25;;
34136;SDS011;20414;50.860;4.382;2023-01-09T00:03:52;0.93;;;0.30;;
34136;SDS011;20414;50.860;4.382;2023-01-09T00:06:18;0.40;;;0.20;;
34136;SDS011;20414;50.860;4.382;2023-01-09T00:08:43;0.30;;;0.20;;
34136;SDS011;20414;50.860;4.382;2023-01-09T00:11:09;0.10;;;0.10;;
34136;SDS011;20414;50.860;4.382;2023-01-09T00:13:35;0.75;;;0.30;;
34136;SDS011;20414;50.860;4.382;2023-01-09T00:16:05;0.70;;;0.20;;
34136;SDS011;20414;50.860;4.382;2023-01-09T00:18:32;0.68;;;0.35;;
34136;SDS011;20414;50.860;4.382;2023-01-09T00:21:02;0.30;;;0.20;;
34136;SDS011;20414;50.860;4.382;2023-01-09T00:23:30;0.40;;;0.30;;
34136;SDS011;20414;50.860;4.382;2023-01-09T00:26:07;0.17;;;0.17;;
34136;SDS011;20414;50.860;4.382;2023-01-09T00:28:34;0.60;;;0.20;;
34136;SDS011;20414;50.860;4.382;2023-01-09T00:31:00;0.45;;;0.28;;
34136;SDS011;20414;50.860;4.382;2023-01-09T00:33:28;0.30;;;0.20;;
34136;SDS011;20414;50.860;4.382;2023-01-09T00:35:58;0.73;;;0.30;;
34136;SDS011;20414;50.860;4.382;2023-01-09T00:38:24;0.22;;;0.20;;
34136;SDS011;20414;50.860;4.382;2023-01-09T00:40:50;0.47;;;0.30;;
34136;SDS011;20414;50.860;4.382;2023-01-09T00:43:16;1.10;;;0.30;;
34136;SDS011;20414;50.860;4.382;2023-01-09T00:45:43;0.73;;;0.20;;
34136;SDS011;20414;50.860;4.382;2023-01-09T00:48:11;0.75;;;0.32;;
34136;SDS011;20414;50.860;4.382;2023-01-09T00:50:41;1.23;;;0.30;;
34136;SDS011;20414;50.860;4.382;2023-01-09T00:53:14;0.45;;;0.25;;
34136;SDS011;20414;50.860;4.382;2023-01-09T00:55:43;0.32;;;0.22;;
34136;SDS011;20414;50.860;4.382;2023-01-09T00:58:09;0.60;;;0.30;;
34136;SDS011;20414;50.860;4.382;2023-01-09T01:00:35;0.22;;;0.22;;
34136;SDS011;20414;50.860;4.382;2023-01-09T01:03:01;0.43;;;0.28;;
34136;SDS011;20414;50.860;4.382;2023-01-09T01:05:27;0.43;;;0.20;;
34136;SDS011;20414;50.860;4.382;2023-01-09T01:08:15;0.88;;;0.40;;
34136;SDS011;20414;50.860;4.382;2023-01-09T01:10:42;0.80;;;0.28;;
34136;SDS011;20414;50.860;4.382;2023-01-09T01:13:09;0.45;;;0.35;;
34136;SDS011;20414;50.860;4.382;2023-01-09T01:15:39;0.47;;;0.32;;
34136;SDS011;20414;50.860;4.382;2023-01-09T01:18:06;0.30;;;0.20;;
34136;SDS011;20414;50.860;4.382;2023-01-09T01:20:32;0.50;;;0.20;;
34136;SDS011;20414;50.860;4.382;2023-01-09T01:22:58;0.43;;;0.30;;
34136;SDS011;20414;50.860;4.382;2023-01-09T01:25:24;0.57;;;0.30;;
34136;SDS011;20414;50.860;4.382;2023-01-09T01:27:49;0.20;;;0.20;;
34136;SDS011;20414;50.860;4.382;2023-01-09T01:30:16;0.30;;;0.20;;
34136;SDS011;20414;50.860;4.382;2023-01-09T01:32:42;0.15;;;0.15;;
34136;SDS011;20414;50.860;4.382;2023-01-09T01:35:08;0.15;;;0.15;;
34136;SDS011;20414;50.860;4.382;2023-01-09T01:37:35;0.20;;;0.20;;
34136;SDS011;20414;50.860;4.382;2023-01-09T01:40:02;0.50;;;0.20;;
34136;SDS011;20414;50.860;4.382;2023-01-09T01:42:30;0.50;;;0.30;;
34136;SDS011;20414;50.860;4.382;2023-01-09T01:50:13;0.95;;;0.30;;
34136;SDS011;20414;50.860;4.382;2023-01-09T01:52:43;0.30;;;0.20;;
34136;SDS011;20414;50.860;4.382;2023-01-09T01:55:12;0.25;;;0.22;;
34136;SDS011;20414;50.860;4.382;2023-01-09T01:57:39;0.52;;;0.30;;
34136;SDS011;20414;50.860;4.382;2023-01-09T02:00:09;0.85;;;0.35;;
34136;SDS011;20414;50.860;4.382;2023-01-09T02:02:36;0.40;;;0.30;;
34136;SDS011;20414;50.860;4.382;2023-01-09T02:05:02;0.85;;;0.20;;
34136;SDS011;20414;50.860;4.382;2023-01-09T02:07:28;0.20;;;0.20;;
34136;SDS011;20414;50.860;4.382;2023-01-09T02:09:54;0.40;;;0.20;;
34136;SDS011;20414;50.860;4.382;2023-01-09T02:12:25;0.25;;;0.17;;
34136;SDS011;20414;50.860;4.382;2023-01-09T02:15:10;0.50;;;0.10;;
34136;SDS011;20414;50.860;4.382;2023-01-09T02:20:38;0.50;;;0.30;;
34136;SDS011;20414;50.860;4.382;2023-01-09T02:31:35;0.70;;;0.30;;
34136;SDS011;20414;50.860;4.382;2023-01-09T02:42:08;0.85;;;0.20;;
34136;SDS011;20414;50.860;4.382;2023-01-09T02:44:41;0.70;;;0.30;;
34136;SDS011;20414;50.860;4.382;2023-01-09T02:49:41;0.43;;;0.30;;
34136;SDS011;20414;50.860;4.382;2023-01-09T02:55:01;0.80;;;0.25;;
34136;SDS011;20414;50.860;4.382;2023-01-09T02:57:53;0.10;;;0.10;;
34136;SDS011;20414;50.860;4.382;2023-01-09T03:08:46;0.28;;;0.20;;
34136;SDS011;20414;50.860;4.382;2023-01-09T03:11:16;0.38;;;0.30;;
34136;SDS011;20414;50.860;4.382;2023-01-09T03:13:46;0.30;;;0.20;;
34136;SDS011;20414;50.860;4.382;2023-01-09T03:16:16;0.30;;;0.20;;
34136;SDS011;20414;50.860;4.382;2023-01-09T03:19:07;0.43;;;0.30;;
34136;SDS011;20414;50.860;4.382;2023-01-09T03:21:37;0.20;;;0.20;;
34136;SDS011;20414;50.860;4.382;2023-01-09T03:24:05;0.20;;;0.20;;
34136;SDS011;20414;50.860;4.382;2023-01-09T03:26:31;0.20;;;0.20;;
34136;SDS011;20414;50.860;4.382;2023-01-09T03:28:57;0.52;;;0.20;;
34136;SDS011;20414;50.860;4.382;2023-01-09T03:31:23;0.20;;;0.20;;
34136;SDS011;20414;50.860;4.382;2023-01-09T03:33:49;0.25;;;0.20;;
34136;SDS011;20414;50.860;4.382;2023-01-09T03:36:16;0.20;;;0.20;;
34136;SDS011;20414;50.860;4.382;2023-01-09T03:38:44;0.40;;;0.20;;
34136;SDS011;20414;50.860;4.382;2023-01-09T03:41:09;0.20;;;0.20;;
34136;SDS011;20414;50.860;4.382;2023-01-09T03:43:35;0.30;;;0.25;;
34136;SDS011;20414;50.860;4.382;2023-01-09T03:46:01;0.30;;;0.20;;
34136;SDS011;20414;50.860;4.382;2023-01-09T03:48:27;0.30;;;0.20;;
34136;SDS011;20414;50.860;4.382;2023-01-09T03:50:53;0.50;;;0.13;;
34136;SDS011;20414;50.860;4.382;2023-01-09T03:53:20;0.20;;;0.20;;
34136;SDS011;20414;50.860;4.382;2023-01-09T03:55:48;0.50;;;0.20;;
34136;SDS011;20414;50.860;4.382;2023-01-09T03:58:16;0.30;;;0.20;;
34136;SDS011;20414;50.860;4.382;2023-01-09T04:00:43;0.43;;;0.20;;
34136;SDS011;20414;50.860;4.382;2023-01-09T04:03:13;0.57;;;0.20;;
34136;SDS011;20414;50.860;4.382;2023-01-09T04:05:39;0.28;;;0.10;;
34136;SDS011;20414;50.860;4.382;2023-01-09T04:08:05;0.20;;;0.20;;
34136;SDS011;20414;50.860;4.382;2023-01-09T04:10:31;0.43;;;0.17;;
34136;SDS011;20414;50.860;4.382;2023-01-09T04:12:57;0.40;;;0.28;;
34136;SDS011;20414;50.860;4.382;2023-01-09T04:15:23;0.40;;;0.17;;
34136;SDS011;20414;50.860;4.382;2023-01-09T04:17:49;0.55;;;0.22;;
34136;SDS011;20414;50.860;4.382;2023-01-09T04:20:14;0.77;;;0.30;;
34136;SDS011;20414;50.860;4.382;2023-01-09T04:22:40;0.40;;;0.22;;
34136;SDS011;20414;50.860;4.382;2023-01-09T04:25:07;0.60;;;0.20;;
34136;SDS011;20414;50.860;4.382;2023-01-09T04:27:33;0.70;;;0.28;;
34136;SDS011;20414;50.860;4.382;2023-01-09T04:29:59;0.40;;;0.20;;
34136;SDS011;20414;50.860;4.382;2023-01-09T04:32:24;0.20;;;0.20;;
34136;SDS011;20414;50.860;4.382;2023-01-09T04:34:52;0.30;;;0.20;;
34136;SDS011;20414;50.860;4.382;2023-01-09T04:37:18;0.10;;;0.10;;
34136;SDS011;20414;50.860;4.382;2023-01-09T04:39:44;0.50;;;0.20;;
34136;SDS011;20414;50.860;4.382;2023-01-09T04:42:10;0.20;;;0.20;;
34136;SDS011;20414;50.860;4.382;2023-01-09T04:44:36;0.25;;;0.20;;
34136;SDS011;20414;50.860;4.382;2023-01-09T04:47:02;0.40;;;0.20;;
34136;SDS011;20414;50.860;4.382;2023-01-09T04:49:28;0.40;;;0.30;;
34136;SDS011;20414;50.860;4.382;2023-01-09T04:51:55;0.32;;;0.10;;
34136;SDS011;20414;50.860;4.382;2023-01-09T04:54:20;0.20;;;0.10;;
34136;SDS011;20414;50.860;4.382;2023-01-09T04:56:46;0.35;;;0.20;;
34136;SDS011;20414;50.860;4.382;2023-01-09T04:59:12;0.43;;;0.20;;
34136;SDS011;20414;50.860;4.382;2023-01-09T05:01:37;0.20;;;0.20;;
34136;SDS011;20414;50.860;4.382;2023-01-09T05:04:03;0.57;;;0.30;;
34136;SDS011;20414;50.860;4.382;2023-01-09T05:06:29;0.20;;;0.10;;
34136;SDS011;20414;50.860;4.382;2023-01-09T05:08:55;0.50;;;0.20;;
34136;SDS011;20414;50.860;4.382;2023-01-09T05:11:21;0.30;;;0.20;;
34136;SDS011;20414;50.860;4.382;2023-01-09T05:13:47;0.40;;;0.20;;
34136;SDS011;20414;50.860;4.382;2023-01-09T05:16:13;0.32;;;0.10;;
34136;SDS011;20414;50.860;4.382;2023-01-09T05:18:39;0.55;;;0.30;;
34136;SDS011;20414;50.860;4.382;2023-01-09T05:21:04;0.30;;;0.20;;
34136;SDS011;20414;50.860;4.382;2023-01-09T05:23:30;0.30;;;0.20;;
34136;SDS011;20414;50.860;4.382;2023-01-09T05:25:56;0.95;;;0.30;;
34136;SDS011;20414;50.860;4.382;2023-01-09T05:28:21;0.35;;;0.20;;
34136;SDS011;20414;50.860;4.382;2023-01-09T05:30:47;0.50;;;0.20;;
34136;SDS011;20414;50.860;4.382;2023-01-09T05:33:13;0.30;;;0.13;;
34136;SDS011;20414;50.860;4.382;2023-01-09T05:35:39;0.20;;;0.20;;
34136;SDS011;20414;50.860;4.382;2023-01-09T05:38:04;0.70;;;0.30;;
34136;SDS011;20414;50.860;4.382;2023-01-09T05:40:30;0.68;;;0.30;;
34136;SDS011;20414;50.860;4.382;2023-01-09T05:42:56;0.17;;;0.10;;
34136;SDS011;20414;50.860;4.382;2023-01-09T05:45:21;0.98;;;0.30;;
34136;SDS011;20414;50.860;4.382;2023-01-09T05:47:47;0.60;;;0.20;;
34136;SDS011;20414;50.860;4.382;2023-01-09T05:50:13;0.30;;;0.20;;
34136;SDS011;20414;50.860;4.382;2023-01-09T05:52:39;0.28;;;0.20;;
34136;SDS011;20414;50.860;4.382;2023-01-09T05:55:05;0.35;;;0.20;;
34136;SDS011;20414;50.860;4.382;2023-01-09T05:57:31;0.93;;;0.20;;
34136;SDS011;20414;50.860;4.382;2023-01-09T05:59:57;0.40;;;0.28;;
34136;SDS011;20414;50.860;4.382;2023-01-09T06:02:23;0.52;;;0.17;;
34136;SDS011;20414;50.860;4.382;2023-01-09T06:04:48;0.20;;;0.17;;
34136;SDS011;20414;50.860;4.382;2023-01-09T06:07:14;0.65;;;0.30;;
34136;SDS011;20414;50.860;4.382;2023-01-09T06:09:40;0.38;;;0.20;;
34136;SDS011;20414;50.860;4.382;2023-01-09T06:12:06;0.43;;;0.20;;
34136;SDS011;20414;50.860;4.382;2023-01-09T06:14:32;0.40;;;0.30;;
34136;SDS011;20414;50.860;4.382;2023-01-09T06:16:57;0.75;;;0.20;;
34136;SDS011;20414;50.860;4.382;2023-01-09T06:19:23;0.50;;;0.30;;
34136;SDS011;20414;50.860;4.382;2023-01-09T06:21:49;0.40;;;0.20;;
34136;SDS011;20414;50.860;4.382;2023-01-09T06:24:15;0.20;;;0.10;;
34136;SDS011;20414;50.860;4.382;2023-01-09T06:26:40;0.57;;;0.30;;
34136;SDS011;20414;50.860;4.382;2023-01-09T06:29:06;0.50;;;0.20;;
34136;SDS011;20414;50.860;4.382;2023-01-09T06:31:32;1.00;;;0.30;;
34136;SDS011;20414;50.860;4.382;2023-01-09T06:33:57;0.50;;;0.20;;
34136;SDS011;20414;50.860;4.382;2023-01-09T06:36:23;0.30;;;0.22;;
34136;SDS011;20414;50.860;4.382;2023-01-09T06:38:49;0.35;;;0.20;;
34136;SDS011;20414;50.860;4.382;2023-01-09T06:41:15;1.50;;;0.20;;
34136;SDS011;20414;50.860;4.382;2023-01-09T06:43:40;1.13;;;0.20;;
34136;SDS011;20414;50.860;4.382;2023-01-09T06:46:06;0.45;;;0.30;;
34136;SDS011;20414;50.860;4.382;2023-01-09T06:48:32;0.98;;;0.28;;
34136;SDS011;20414;50.860;4.382;2023-01-09T06:50:58;0.30;;;0.10;;
34136;SDS011;20414;50.860;4.382;2023-01-09T06:53:24;0.30;;;0.20;;
34136;SDS011;20414;50.860;4.382;2023-01-09T06:55:49;0.80;;;0.17;;
34136;SDS011;20414;50.860;4.382;2023-01-09T06:58:15;1.02;;;0.30;;
34136;SDS011;20414;50.860;4.382;2023-01-09T07:00:41;0.22;;;0.20;;
34136;SDS011;20414;50.860;4.382;2023-01-09T07:03:07;0.50;;;0.28;;
34136;SDS011;20414;50.860;4.382;2023-01-09T07:05:36;0.30;;;0.30;;
34136;SDS011;20414;50.860;4.382;2023-01-09T07:08:04;0.70;;;0.20;;
34136;SDS011;20414;50.860;4.382;2023-01-09T07:10:29;0.80;;;0.28;;
34136;SDS011;20414;50.860;4.382;2023-01-09T07:12:55;0.70;;;0.22;;
34136;SDS011;20414;50.860;4.382;2023-01-09T07:15:21;0.32;;;0.25;;
34136;SDS011;20414;50.860;4.382;2023-01-09T07:17:47;0.40;;;0.20;;
34136;SDS011;20414;50.860;4.382;2023-01-09T07:20:15;0.50;;;0.25;;
34136;SDS011;20414;50.860;4.382;2023-01-09T07:22:42;0.32;;;0.30;;
34136;SDS011;20414;50.860;4.382;2023-01-09T07:25:08;0.10;;;0.10;;
34136;SDS011;20414;50.860;4.382;2023-01-09T07:27:34;0.70;;;0.22;;
34136;SDS011;20414;50.860;4.382;2023-01-09T07:29:59;0.40;;;0.20;;
34136;SDS011;20414;50.860;4.382;2023-01-09T07:32:25;0.30;;;0.20;;
34136;SDS011;20414;50.860;4.382;2023-01-09T07:34:51;0.17;;;0.17;;
34136;SDS011;20414;50.860;4.382;2023-01-09T07:37:17;0.47;;;0.30;;
34136;SDS011;20414;50.860;4.382;2023-01-09T07:39:43;0.50;;;0.10;;
34136;SDS011;20414;50.860;4.382;2023-01-09T07:42:09;0.13;;;0.13;;
34136;SDS011;20414;50.860;4.382;2023-01-09T07:44:35;0.38;;;0.20;;
34136;SDS011;20414;50.860;4.382;2023-01-09T07:47:00;0.40;;;0.20;;
34136;SDS011;20414;50.860;4.382;2023-01-09T07:49:26;0.30;;;0.30;;
34136;SDS011;20414;50.860;4.382;2023-01-09T07:51:52;0.80;;;0.30;;
34136;SDS011;20414;50.860;4.382;2023-01-09T07:54:18;0.32;;;0.28;;
34136;SDS011;20414;50.860;4.382;2023-01-09T07:56:44;0.60;;;0.20;;
34136;SDS011;20414;50.860;4.382;2023-01-09T07:59:09;0.50;;;0.20;;
34136;SDS011;20414;50.860;4.382;2023-01-09T08:01:35;0.75;;;0.35;;
34136;SDS011;20414;50.860;4.382;2023-01-09T08:04:01;0.32;;;0.20;;
34136;SDS011;20414;50.860;4.382;2023-01-09T08:06:27;0.40;;;0.20;;
34136;SDS011;20414;50.860;4.382;2023-01-09T08:08:52;0.20;;;0.20;;
34136;SDS011;20414;50.860;4.382;2023-01-09T08:11:18;0.30;;;0.20;;
34136;SDS011;20414;50.860;4.382;2023-01-09T08:13:44;0.25;;;0.20;;
34136;SDS011;20414;50.860;4.382;2023-01-09T08:16:09;0.57;;;0.20;;
34136;SDS011;20414;50.860;4.382;2023-01-09T08:18:35;0.25;;;0.20;;
34136;SDS011;20414;50.860;4.382;2023-01-09T08:21:00;0.45;;;0.20;;
34136;SDS011;20414;50.860;4.382;2023-01-09T08:23:27;0.30;;;0.20;;
34136;SDS011;20414;50.860;4.382;2023-01-09T08:25:53;0.25;;;0.20;;
34136;SDS011;20414;50.860;4.382;2023-01-09T08:28:18;0.38;;;0.22;;
34136;SDS011;20414;50.860;4.382;2023-01-09T08:30:45;0.82;;;0.30;;
34136;SDS011;20414;50.860;4.382;2023-01-09T08:33:11;0.52;;;0.30;;
34136;SDS011;20414;50.860;4.382;2023-01-09T08:35:37;0.30;;;0.13;;
34136;SDS011;20414;50.860;4.382;2023-01-09T08:38:03;0.20;;;0.13;;
34136;SDS011;20414;50.860;4.382;2023-01-09T08:40:29;0.30;;;0.17;;
34136;SDS011;20414;50.860;4.382;2023-01-09T08:42:54;0.40;;;0.28;;
34136;SDS011;20414;50.860;4.382;2023-01-09T08:45:38;0.57;;;0.30;;
34136;SDS011;20414;50.860;4.382;2023-01-09T08:48:23;0.68;;;0.20;;
34136;SDS011;20414;50.860;4.382;2023-01-09T08:50:48;0.43;;;0.25;;
34136;SDS011;20414;50.860;4.382;2023-01-09T08:53:14;0.50;;;0.10;;
34136;SDS011;20414;50.860;4.382;2023-01-09T08:55:40;0.43;;;0.20;;
34136;SDS011;20414;50.860;4.382;2023-01-09T08:58:06;0.60;;;0.20;;
34136;SDS011;20414;50.860;4.382;2023-01-09T09:00:32;0.50;;;0.20;;
34136;SDS011;20414;50.860;4.382;2023-01-09T09:02:58;0.20;;;0.10;;
34136;SDS011;20414;50.860;4.382;2023-01-09T09:05:25;0.57;;;0.20;;
34136;SDS011;20414;50.860;4.382;2023-01-09T09:07:53;0.52;;;0.28;;
34136;SDS011;20414;50.860;4.382;2023-01-09T09:10:20;0.30;;;0.20;;
34136;SDS011;20414;50.860;4.382;2023-01-09T09:12:47;0.15;;;0.13;;
34136;SDS011;20414;50.860;4.382;2023-01-09T09:15:14;0.55;;;0.17;;
34136;SDS011;20414;50.860;4.382;2023-01-09T09:20:10;0.45;;;0.10;;
34136;SDS011;20414;50.860;4.382;2023-01-09T09:22:36;0.40;;;0.20;;
34136;SDS011;20414;50.860;4.382;2023-01-09T09:25:02;1.55;;;0.25;;
34136;SDS011;20414;50.860;4.382;2023-01-09T09:27:29;0.60;;;0.28;;
34136;SDS011;20414;50.860;4.382;2023-01-09T09:29:55;0.45;;;0.20;;
34136;SDS011;20414;50.860;4.382;2023-01-09T09:32:21;0.13;;;0.10;;
34136;SDS011;20414;50.860;4.382;2023-01-09T09:34:48;0.75;;;0.20;;
34136;SDS011;20414;50.860;4.382;2023-01-09T09:37:13;0.25;;;0.20;;
34136;SDS011;20414;50.860;4.382;2023-01-09T09:39:39;0.20;;;0.20;;
34136;SDS011;20414;50.860;4.382;2023-01-09T09:53:01;1.08;;;0.30;;
34136;SDS011;20414;50.860;4.382;2023-01-09T09:55:32;0.35;;;0.17;;
34136;SDS011;20414;50.860;4.382;2023-01-09T09:58:04;0.55;;;0.30;;
34136;SDS011;20414;50.860;4.382;2023-01-09T10:00:47;0.50;;;0.30;;
34136;SDS011;20414;50.860;4.382;2023-01-09T10:05:51;0.40;;;0.20;;
34136;SDS011;20414;50.860;4.382;2023-01-09T10:11:12;0.22;;;0.20;;
34136;SDS011;20414;50.860;4.382;2023-01-09T10:13:43;0.52;;;0.20;;
34136;SDS011;20414;50.860;4.382;2023-01-09T10:16:34;0.30;;;0.30;;
34136;SDS011;20414;50.860;4.382;2023-01-09T10:19:28;0.43;;;0.20;;
34136;SDS011;20414;50.860;4.382;2023-01-09T10:22:09;0.35;;;0.10;;
34136;SDS011;20414;50.860;4.382;2023-01-09T10:39:20;0.10;;;0.10;;
34136;SDS011;20414;50.860;4.382;2023-01-09T10:41:53;0.57;;;0.30;;
34136;SDS011;20414;50.860;4.382;2023-01-09T10:44:22;0.45;;;0.20;;
34136;SDS011;20414;50.860;4.382;2023-01-09T10:47:12;0.30;;;0.20;;
34136;SDS011;20414;50.860;4.382;2023-01-09T10:49:41;0.35;;;0.20;;
34136;SDS011;20414;50.860;4.382;2023-01-09T10:54:33;0.22;;;0.20;;
34136;SDS011;20414;50.860;4.382;2023-01-09T10:57:14;0.22;;;0.20;;
34136;SDS011;20414;50.860;4.382;2023-01-09T10:59:51;0.25;;;0.10;;
34136;SDS011;20414;50.860;4.382;2023-01-09T11:02:30;0.40;;;0.13;;
34136;SDS011;20414;50.860;4.382;2023-01-09T11:04:58;0.30;;;0.10;;
34136;SDS011;20414;50.860;4.382;2023-01-09T11:07:33;0.52;;;0.30;;
34136;SDS011;20414;50.860;4.382;2023-01-09T11:10:04;0.67;;;0.20;;
34136;SDS011;20414;50.860;4.382;2023-01-09T11:12:33;0.43;;;0.10;;
34136;SDS011;20414;50.860;4.382;2023-01-09T11:17:43;0.30;;;0.20;;
34136;SDS011;20414;50.860;4.382;2023-01-09T11:22:55;0.10;;;0.10;;
34136;SDS011;20414;50.860;4.382;2023-01-09T11:25:23;0.20;;;0.20;;
34136;SDS011;20414;50.860;4.382;2023-01-09T11:30:33;0.10;;;0.10;;
34136;SDS011;20414;50.860;4.382;2023-01-09T11:35:37;0.35;;;0.22;;
34136;SDS011;20414;50.860;4.382;2023-01-09T11:40:51;0.55;;;0.20;;
34136;SDS011;20414;50.860;4.382;2023-01-09T11:43:54;0.10;;;0.10;;
34136;SDS011;20414;50.860;4.382;2023-01-09T11:46:33;0.28;;;0.10;;
34136;SDS011;20414;50.860;4.382;2023-01-09T11:49:01;0.10;;;0.10;;
34136;SDS011;20414;50.860;4.382;2023-01-09T11:51:45;0.47;;;0.20;;
34136;SDS011;20414;50.860;4.382;2023-01-09T11:56:42;0.45;;;0.20;;
34136;SDS011;20414;50.860;4.382;2023-01-09T11:59:16;0.30;;;0.30;;
34136;SDS011;20414;50.860;4.382;2023-01-09T12:04:52;0.77;;;0.20;;
34136;SDS011;20414;50.860;4.382;2023-01-09T12:07:42;0.28;;;0.20;;
34136;SDS011;20414;50.860;4.382;2023-01-09T12:18:31;0.38;;;0.20;;
34136;SDS011;20414;50.860;4.382;2023-01-09T12:26:58;0.37;;;0.20;;
34136;SDS011;20414;50.860;4.382;2023-01-09T12:32:31;0.20;;;0.10;;
34136;SDS011;20414;50.860;4.382;2023-01-09T12:35:27;0.20;;;0.20;;
34136;SDS011;20414;50.860;4.382;2023-01-09T12:38:13;0.28;;;0.10;;
34136;SDS011;20414;50.860;4.382;2023-01-09T12:41:00;0.32;;;0.10;;
34136;SDS011;20414;50.860;4.382;2023-01-09T12:47:17;0.10;;;0.10;;
34136;SDS011;20414;50.860;4.382;2023-01-09T12:52:43;0.32;;;0.20;;
34136;SDS011;20414;50.860;4.382;2023-01-09T12:55:14;0.25;;;0.17;;
34136;SDS011;20414;50.860;4.382;2023-01-09T12:57:47;0.30;;;0.13;;
34136;SDS011;20414;50.860;4.382;2023-01-09T13:10:38;0.25;;;0.20;;
34136;SDS011;20414;50.860;4.382;2023-01-09T13:13:12;0.10;;;0.10;;
34136;SDS011;20414;50.860;4.382;2023-01-09T13:16:03;0.30;;;0.20;;
34136;SDS011;20414;50.860;4.382;2023-01-09T13:20:59;0.20;;;0.10;;
34136;SDS011;20414;50.860;4.382;2023-01-09T13:26:01;0.55;;;0.20;;
34136;SDS011;20414;50.860;4.382;2023-01-09T13:33:53;0.10;;;0.10;;
34136;SDS011;20414;50.860;4.382;2023-01-09T13:38:52;0.22;;;0.10;;
34136;SDS011;20414;50.860;4.382;2023-01-09T13:41:20;0.10;;;0.10;;
34136;SDS011;20414;50.860;4.382;2023-01-09T13:44:18;0.30;;;0.20;;
34136;SDS011;20414;50.860;4.382;2023-01-09T13:46:51;0.57;;;0.20;;
34136;SDS011;20414;50.860;4.382;2023-01-09T13:49:29;0.20;;;0.20;;
34136;SDS011;20414;50.860;4.382;2023-01-09T13:52:01;0.10;;;0.10;;
34136;SDS011;20414;50.860;4.382;2023-01-09T13:57:19;0.32;;;0.20;;
34136;SDS011;20414;50.860;4.382;2023-01-09T14:05:09;0.60;;;0.30;;
34136;SDS011;20414;50.860;4.382;2023-01-09T14:12:47;0.50;;;0.30;;
34136;SDS011;20414;50.860;4.382;2023-01-09T14:15:35;0.47;;;0.30;;
34136;SDS011;20414;50.860;4.382;2023-01-09T14:18:05;1.08;;;0.40;;
34136;SDS011;20414;50.860;4.382;2023-01-09T14:20:41;0.45;;;0.38;;
34136;SDS011;20414;50.860;4.382;2023-01-09T14:23:21;0.43;;;0.30;;
34136;SDS011;20414;50.860;4.382;2023-01-09T14:25:49;1.10;;;0.45;;
34136;SDS011;20414;50.860;4.382;2023-01-09T14:35:49;0.73;;;0.40;;
34136;SDS011;20414;50.860;4.382;2023-01-09T14:38:34;0.85;;;0.50;;
34136;SDS011;20414;50.860;4.382;2023-01-09T14:44:53;0.50;;;0.50;;
34136;SDS011;20414;50.860;4.382;2023-01-09T14:52:54;0.73;;;0.47;;
34136;SDS011;20414;50.860;4.382;2023-01-09T15:03:17;0.82;;;0.60;;
34136;SDS011;20414;50.860;4.382;2023-01-09T15:05:44;0.60;;;0.52;;
34136;SDS011;20414;50.860;4.382;2023-01-09T15:08:11;0.70;;;0.45;;
34136;SDS011;20414;50.860;4.382;2023-01-09T15:10:42;0.80;;;0.60;;
34136;SDS011;20414;50.860;4.382;2023-01-09T15:13:12;1.13;;;0.70;;
34136;SDS011;20414;50.860;4.382;2023-01-09T15:15:45;0.85;;;0.60;;
34136;SDS011;20414;50.860;4.382;2023-01-09T15:18:17;1.55;;;0.70;;
34136;SDS011;20414;50.860;4.382;2023-01-09T15:20:50;1.13;;;0.77;;
34136;SDS011;20414;50.860;4.382;2023-01-09T15:23:22;0.90;;;0.70;;
34136;SDS011;20414;50.860;4.382;2023-01-09T15:25:50;1.20;;;0.70;;
34136;SDS011;20414;50.860;4.382;2023-01-09T15:30:52;1.15;;;0.70;;
34136;SDS011;20414;50.860;4.382;2023-01-09T15:33:30;0.88;;;0.68;;
34136;SDS011;20414;50.860;4.382;2023-01-09T15:35:56;1.05;;;0.60;;
34136;SDS011;20414;50.860;4.382;2023-01-09T15:38:26;1.40;;;0.70;;
34136;SDS011;20414;50.860;4.382;2023-01-09T15:41:28;0.68;;;0.68;;
34136;SDS011;20414;50.860;4.382;2023-01-09T15:44:16;0.80;;;0.63;;
34136;SDS011;20414;50.860;4.382;2023-01-09T15:46:49;0.95;;;0.65;;
34136;SDS011;20414;50.860;4.382;2023-01-09T15:49:16;1.77;;;0.60;;
34136;SDS011;20414;50.860;4.382;2023-01-09T15:51:43;1.02;;;0.73;;
34136;SDS011;20414;50.860;4.382;2023-01-09T15:54:14;0.85;;;0.70;;
34136;SDS011;20414;50.860;4.382;2023-01-09T15:56:41;1.08;;;0.80;;
34136;SDS011;20414;50.860;4.382;2023-01-09T15:59:25;0.95;;;0.65;;
34136;SDS011;20414;50.860;4.382;2023-01-09T16:01:59;1.23;;;0.77;;
34136;SDS011;20414;50.860;4.382;2023-01-09T16:04:46;0.70;;;0.70;;
34136;SDS011;20414;50.860;4.382;2023-01-09T16:07:17;0.98;;;0.80;;
34136;SDS011;20414;50.860;4.382;2023-01-09T16:09:45;0.90;;;0.60;;
34136;SDS011;20414;50.860;4.382;2023-01-09T16:12:25;1.17;;;0.80;;
34136;SDS011;20414;50.860;4.382;2023-01-09T16:17:24;1.38;;;0.70;;
34136;SDS011;20414;50.860;4.382;2023-01-09T16:19:55;0.80;;;0.68;;
34136;SDS011;20414;50.860;4.382;2023-01-09T16:24:55;1.40;;;0.70;;
34136;SDS011;20414;50.860;4.382;2023-01-09T16:27:29;0.88;;;0.75;;
34136;SDS011;20414;50.860;4.382;2023-01-09T16:29:58;0.90;;;0.73;;
34136;SDS011;20414;50.860;4.382;2023-01-09T16:32:32;0.80;;;0.60;;
34136;SDS011;20414;50.860;4.382;2023-01-09T16:35:01;1.15;;;0.70;;
34136;SDS011;20414;50.860;4.382;2023-01-09T16:37:29;1.45;;;0.80;;
34136;SDS011;20414;50.860;4.382;2023-01-09T16:42:24;1.77;;;0.90;;
34136;SDS011;20414;50.860;4.382;2023-01-09T16:45:09;1.00;;;0.77;;
34136;SDS011;20414;50.860;4.382;2023-01-09T16:47:34;1.00;;;0.63;;
34136;SDS011;20414;50.860;4.382;2023-01-09T16:50:00;1.52;;;0.80;;
34136;SDS011;20414;50.860;4.382;2023-01-09T16:52:26;0.90;;;0.70;;
34136;SDS011;20414;50.860;4.382;2023-01-09T16:54:53;0.93;;;0.80;;
34136;SDS011;20414;50.860;4.382;2023-01-09T16:57:18;0.70;;;0.60;;
34136;SDS011;20414;50.860;4.382;2023-01-09T16:59:44;0.82;;;0.63;;
34136;SDS011;20414;50.860;4.382;2023-01-09T17:02:17;0.90;;;0.80;;
34136;SDS011;20414;50.860;4.382;2023-01-09T17:04:44;0.80;;;0.63;;
34136;SDS011;20414;50.860;4.382;2023-01-09T17:07:13;1.08;;;0.70;;
34136;SDS011;20414;50.860;4.382;2023-01-09T17:09:40;0.88;;;0.70;;
34136;SDS011;20414;50.860;4.382;2023-01-09T17:12:24;2.00;;;0.70;;
34136;SDS011;20414;50.860;4.382;2023-01-09T17:14:50;0.85;;;0.65;;
34136;SDS011;20414;50.860;4.382;2023-01-09T17:17:16;1.20;;;0.77;;
34136;SDS011;20414;50.860;4.382;2023-01-09T17:19:42;0.93;;;0.60;;
34136;SDS011;20414;50.860;4.382;2023-01-09T17:22:08;1.23;;;0.80;;
34136;SDS011;20414;50.860;4.382;2023-01-09T17:24:33;1.40;;;0.75;;
34136;SDS011;20414;50.860;4.382;2023-01-09T17:27:20;0.90;;;0.70;;
34136;SDS011;20414;50.860;4.382;2023-01-09T17:30:16;0.75;;;0.60;;
34136;SDS011;20414;50.860;4.382;2023-01-09T17:32:42;1.15;;;0.63;;
34136;SDS011;20414;50.860;4.382;2023-01-09T17:35:08;1.27;;;0.70;;
34136;SDS011;20414;50.860;4.382;2023-01-09T17:37:37;0.80;;;0.60;;
34136;SDS011;20414;50.860;4.382;2023-01-09T17:40:03;1.05;;;0.68;;
34136;SDS011;20414;50.860;4.382;2023-01-09T17:42:37;1.23;;;0.70;;
34136;SDS011;20414;50.860;4.382;2023-01-09T17:45:02;1.02;;;0.50;;
34136;SDS011;20414;50.860;4.382;2023-01-09T17:47:30;0.60;;;0.60;;
34136;SDS011;20414;50.860;4.382;2023-01-09T17:49:55;0.68;;;0.50;;
34136;SDS011;20414;50.860;4.382;2023-01-09T17:52:21;0.80;;;0.77;;
34136;SDS011;20414;50.860;4.382;2023-01-09T17:54:49;0.70;;;0.60;;
34136;SDS011;20414;50.860;4.382;2023-01-09T17:57:14;1.05;;;0.70;;
34136;SDS011;20414;50.860;4.382;2023-01-09T17:59:41;0.88;;;0.65;;
34136;SDS011;20414;50.860;4.382;2023-01-09T18:02:18;0.70;;;0.60;;
34136;SDS011;20414;50.860;4.382;2023-01-09T18:04:44;0.80;;;0.50;;
34136;SDS011;20414;50.860;4.382;2023-01-09T18:07:13;1.10;;;0.55;;
34136;SDS011;20414;50.860;4.382;2023-01-09T18:09:40;0.77;;;0.63;;